Conceicao do Coite, Brazil
Current Conditions -  °F | °C
As of 9:00 AM on Wednesday 26 Nov 2014 (Local Time) from SBSV Reporting Station
Scattered Clouds Scattered Clouds  
Wind Chill: 81°   Ceiling: Unl
Heat Index: 84°   Visibility: 6mi
Dew Point: 70°   Wind: 9mph
Humidity: 70%   Direction: 60°ENE
Pressure: 29.94"   Gusts: NA
Location:  11.56°S, 39.28°W
Report Text: SBSV 261200Z 06008KT 9999 SCT017 27/21 Q1014
Loading
Personal Weather Stations






























Interactive Weather Map New forecast layout! Learn more

10-Day Weather Forecast

Advertisements
Track Severe Weather on mobile